Idman, Idaho
Current Conditions -  °F | °C
As of 9:12 AM on Sunday 25 Jan 2015 (Local Time) from KRXE Reporting Station
Haze Haze  
Wind Chill: 27°   Ceiling: 200
Heat Index: 27°   Visibility: 2mi
Dew Point: 27°   Wind: 0mph
Humidity: 100%   Direction: NA
Pressure: 30.44"   Gusts: NA
Location:  44.2396°N, 112.579°W
Report Text: KRXE 251612Z AUTO 00000KT 2SM BR OVC002 M03/M03 A3044 RMK AO2 T10281028
Loading
Personal Weather Stations






























Interactive Weather Map New forecast layout! Learn more

10-Day Weather Forecast

Advertisements
Track Severe Weather on mobile